Time;durP1;ratioP1;P1;durP2;ratioP2;P2;SDS_P1;SDS_P2;PMS_P1;PMS_P2;Temp;Humidity;BMP_temperature;BMP_pressure;BME280_temperature;BME280_humidity;BME280_pressure;Samples;Min_cycle;Max_cycle;Signal;HPM_P1;HPM_P2
2022/03/31 00:00:17;;;;;;;4.22;0.70;;;;;;;;;;5046623;28;20493;-73
2022/03/31 00:02:44;;;;;;;6.53;0.77;;;;;;;;;;5040148;28;20831;-72
2022/03/31 00:05:13;;;;;;;6.75;1.00;;;;;;;;;;5046619;28;20063;-72
2022/03/31 00:07:51;;;;;;;11.70;0.98;;;;;;;;;;5047452;28;20812;-73
2022/03/31 00:10:23;;;;;;;7.57;1.15;;;;;;;;;;5047319;28;20577;-72
2022/03/31 00:12:51;;;;;;;5.70;1.20;;;;;;;;;;5042881;28;20059;-72
2022/03/31 00:15:18;;;;;;;8.73;0.93;;;;;;;;;;5050391;28;20056;-72
2022/03/31 00:17:45;;;;;;;7.93;1.40;;;;;;;;;;5046976;28;20048;-72
2022/03/31 00:20:14;;;;;;;4.32;0.70;;;;;;;;;;5046895;28;20052;-73
2022/03/31 00:22:42;;;;;;;3.83;0.88;;;;;;;;;;5046528;28;20063;-73
2022/03/31 00:25:10;;;;;;;4.75;0.70;;;;;;;;;;5047766;28;20110;-72
2022/03/31 00:27:39;;;;;;;6.32;0.85;;;;;;;;;;5045171;28;20088;-72
2022/03/31 00:30:07;;;;;;;5.25;0.88;;;;;;;;;;5046488;28;20048;-72
2022/03/31 00:32:35;;;;;;;8.35;0.90;;;;;;;;;;5047079;28;20133;-72
2022/03/31 00:35:02;;;;;;;7.35;0.80;;;;;;;;;;5050268;28;20044;-72
2022/03/31 00:37:31;;;;;;;3.42;0.70;;;;;;;;;;5047204;28;20090;-72
2022/03/31 00:39:58;;;;;;;5.88;0.70;;;;;;;;;;5050468;28;20063;-73
2022/03/31 00:42:25;;;;;;;7.00;0.85;;;;;;;;;;5048777;28;20471;-70
2022/03/31 00:44:53;;;;;;;4.22;0.98;;;;;;;;;;5049026;28;20060;-69
2022/03/31 00:47:20;;;;;;;5.20;1.08;;;;;;;;;;5051400;28;20418;-71
2022/03/31 00:49:47;;;;;;;9.35;1.17;;;;;;;;;;5049484;28;20056;-70
2022/03/31 00:52:15;;;;;;;8.30;1.08;;;;;;;;;;5051355;28;20053;-70
2022/03/31 00:54:44;;;;;;;4.20;1.17;;;;;;;;;;5050987;28;20118;-70
2022/03/31 00:57:11;;;;;;;3.55;0.90;;;;;;;;;;5049725;28;20075;-71
2022/03/31 00:59:38;;;;;;;5.47;1.65;;;;;;;;;;5049878;28;20056;-70
2022/03/31 01:02:08;;;;;;;3.78;0.90;;;;;;;;;;5051595;28;20048;-70
2022/03/31 01:04:35;;;;;;;3.38;0.90;;;;;;;;;;5050517;28;20083;-70
2022/03/31 01:07:03;;;;;;;5.00;0.80;;;;;;;;;;5049300;28;20059;-70
2022/03/31 01:09:32;;;;;;;3.58;0.88;;;;;;;;;;5052037;28;20488;-70
2022/03/31 01:12:02;;;;;;;5.28;0.98;;;;;;;;;;5049186;28;20044;-70
2022/03/31 01:14:32;;;;;;;9.57;1.05;;;;;;;;;;5050231;28;20495;-70
2022/03/31 01:17:00;;;;;;;4.32;0.90;;;;;;;;;;5050116;28;20052;-70
2022/03/31 01:19:27;;;;;;;6.60;1.20;;;;;;;;;;5050072;28;20088;-70
2022/03/31 01:21:54;;;;;;;5.35;1.10;;;;;;;;;;5048154;28;20044;-70
2022/03/31 01:24:23;;;;;;;7.57;1.45;;;;;;;;;;5047302;28;20114;-70
2022/03/31 01:26:50;;;;;;;8.30;1.10;;;;;;;;;;5044513;28;20053;-70
2022/03/31 01:29:17;;;;;;;10.95;1.60;;;;;;;;;;5047925;28;20049;-70
2022/03/31 01:31:44;;;;;;;4.00;0.95;;;;;;;;;;5048077;28;20052;-71
2022/03/31 01:34:12;;;;;;;8.50;1.20;;;;;;;;;;5047377;28;20071;-70
2022/03/31 01:36:39;;;;;;;7.18;1.20;;;;;;;;;;5049470;28;20048;-70
2022/03/31 01:39:06;;;;;;;8.80;1.33;;;;;;;;;;5050188;28;20414;-70
2022/03/31 01:41:35;;;;;;;6.28;1.27;;;;;;;;;;5050533;28;20490;-70
2022/03/31 01:44:03;;;;;;;5.50;1.25;;;;;;;;;;5043199;28;20048;-70
2022/03/31 01:46:30;;;;;;;6.82;1.25;;;;;;;;;;5049609;28;20049;-70
2022/03/31 01:48:57;;;;;;;5.20;1.17;;;;;;;;;;5049712;28;20056;-70
2022/03/31 01:51:25;;;;;;;5.18;0.90;;;;;;;;;;5046911;28;20052;-70
2022/03/31 01:53:52;;;;;;;4.78;0.90;;;;;;;;;;5048535;28;20728;-70
2022/03/31 01:56:19;;;;;;;4.75;0.85;;;;;;;;;;5049635;28;20422;-70
2022/03/31 01:58:47;;;;;;;6.35;1.50;;;;;;;;;;5049780;28;20055;-70
2022/03/31 02:01:15;;;;;;;14.60;1.55;;;;;;;;;;5048486;28;20067;-70
2022/03/31 02:03:42;;;;;;;8.52;1.33;;;;;;;;;;5050315;28;20649;-70
2022/03/31 02:06:09;;;;;;;7.60;1.20;;;;;;;;;;5047573;28;20115;-70
2022/03/31 02:08:36;;;;;;;8.65;1.50;;;;;;;;;;5045984;28;20067;-70
2022/03/31 02:11:03;;;;;;;6.45;1.17;;;;;;;;;;5049156;28;20045;-70
2022/03/31 02:13:31;;;;;;;7.18;1.33;;;;;;;;;;5046211;28;20498;-70
2022/03/31 02:15:59;;;;;;;7.82;1.23;;;;;;;;;;5049629;28;20067;-70
2022/03/31 02:18:27;;;;;;;10.32;1.67;;;;;;;;;;5043322;28;20045;-70
2022/03/31 02:20:54;;;;;;;7.50;1.83;;;;;;;;;;5042454;28;20057;-70
2022/03/31 02:23:21;;;;;;;7.10;2.08;;;;;;;;;;5050139;28;20047;-70
2022/03/31 02:25:48;;;;;;;7.40;2.95;;;;;;;;;;5048518;28;20064;-70
2022/03/31 02:28:15;;;;;;;6.95;3.42;;;;;;;;;;5051244;28;20052;-70
2022/03/31 02:30:43;;;;;;;11.02;4.00;;;;;;;;;;5047421;28;20055;-70
2022/03/31 02:33:11;;;;;;;9.20;3.67;;;;;;;;;;5046789;28;20052;-70
2022/03/31 02:35:39;;;;;;;9.88;3.53;;;;;;;;;;5047273;28;20552;-70
2022/03/31 02:38:06;;;;;;;10.75;3.05;;;;;;;;;;5046200;28;20060;-70
2022/03/31 02:40:33;;;;;;;10.55;2.80;;;;;;;;;;5048867;28;20051;-70
2022/03/31 02:43:00;;;;;;;11.95;2.72;;;;;;;;;;5051802;28;20083;-70
2022/03/31 02:45:28;;;;;;;7.97;2.55;;;;;;;;;;5055249;28;20118;-70
2022/03/31 02:47:55;;;;;;;5.18;2.40;;;;;;;;;;5046445;28;20074;-71
2022/03/31 02:50:23;;;;;;;7.03;2.55;;;;;;;;;;5048035;28;20102;-70
2022/03/31 02:55:35;;;;;;;6.78;2.67;;;;;;;;;;5048376;28;20044;-70
2022/03/31 02:58:03;;;;;;;5.78;2.45;;;;;;;;;;5049598;28;20055;-70
2022/03/31 03:00:32;;;;;;;7.57;2.85;;;;;;;;;;5040116;28;20048;-70
2022/03/31 03:02:59;;;;;;;5.05;2.75;;;;;;;;;;5045982;28;20053;-70
2022/03/31 03:05:28;;;;;;;7.72;2.70;;;;;;;;;;5047796;28;20053;-70
2022/03/31 03:07:56;;;;;;;4.32;2.70;;;;;;;;;;5050547;28;20520;-70
2022/03/31 03:10:23;;;;;;;5.78;3.15;;;;;;;;;;5052978;28;20048;-70
2022/03/31 03:12:50;;;;;;;8.27;3.20;;;;;;;;;;5048617;28;20059;-70
2022/03/31 03:15:18;;;;;;;7.70;3.30;;;;;;;;;;5050940;28;20146;-69
2022/03/31 03:17:46;;;;;;;8.38;3.25;;;;;;;;;;5051077;28;20143;-70
2022/03/31 03:20:15;;;;;;;6.30;3.50;;;;;;;;;;5044606;28;20056;-69
2022/03/31 03:22:44;;;;;;;7.43;2.92;;;;;;;;;;5048163;28;20044;-70
2022/03/31 03:25:12;;;;;;;5.82;3.20;;;;;;;;;;5045592;28;20166;-70
2022/03/31 03:27:39;;;;;;;6.63;3.05;;;;;;;;;;5043008;28;20056;-70
2022/03/31 03:30:08;;;;;;;7.00;3.08;;;;;;;;;;5043112;28;20060;-70
2022/03/31 03:32:36;;;;;;;4.82;2.55;;;;;;;;;;5041505;28;20056;-70
2022/03/31 03:35:04;;;;;;;4.85;2.47;;;;;;;;;;5044074;28;20078;-70
2022/03/31 03:37:31;;;;;;;5.38;2.50;;;;;;;;;;5047783;28;20560;-70
2022/03/31 03:40:02;;;;;;;6.07;2.58;;;;;;;;;;5048713;28;20055;-70
2022/03/31 03:42:29;;;;;;;6.15;2.47;;;;;;;;;;5049167;28;20076;-70
2022/03/31 03:44:56;;;;;;;4.40;2.50;;;;;;;;;;5045996;28;20063;-70
2022/03/31 03:47:24;;;;;;;5.72;2.55;;;;;;;;;;5046956;28;20051;-70
2022/03/31 03:49:51;;;;;;;4.82;1.70;;;;;;;;;;5046839;28;20063;-69
2022/03/31 03:52:18;;;;;;;4.45;1.48;;;;;;;;;;5047118;28;20052;-70
2022/03/31 03:54:46;;;;;;;3.08;1.30;;;;;;;;;;5047107;28;20423;-70
2022/03/31 03:57:14;;;;;;;2.83;1.15;;;;;;;;;;5049773;28;20052;-70
2022/03/31 03:59:41;;;;;;;2.30;1.65;;;;;;;;;;5042805;28;20049;-70
2022/03/31 04:02:09;;;;;;;3.50;1.10;;;;;;;;;;5047422;28;20091;-70
2022/03/31 04:04:36;;;;;;;4.82;0.93;;;;;;;;;;5046897;28;20685;-70
2022/03/31 04:07:03;;;;;;;1.30;0.90;;;;;;;;;;5047572;28;20059;-70
2022/03/31 04:09:30;;;;;;;4.63;1.05;;;;;;;;;;5048325;28;20055;-70
2022/03/31 04:11:58;;;;;;;2.33;1.10;;;;;;;;;;5047501;28;20056;-70
2022/03/31 04:14:26;;;;;;;3.88;1.00;;;;;;;;;;5051532;28;20056;-70
2022/03/31 04:16:55;;;;;;;2.67;0.90;;;;;;;;;;5051956;28;20056;-70
2022/03/31 04:19:22;;;;;;;5.32;1.30;;;;;;;;;;5052860;28;20495;-70
2022/03/31 04:21:49;;;;;;;4.47;1.20;;;;;;;;;;5054845;28;20933;-69
2022/03/31 04:24:16;;;;;;;5.38;1.40;;;;;;;;;;5050209;28;20065;-70
2022/03/31 04:26:44;;;;;;;2.45;1.30;;;;;;;;;;5049343;28;20053;-70
2022/03/31 04:29:11;;;;;;;4.60;1.30;;;;;;;;;;5044517;28;20045;-70
2022/03/31 04:31:42;;;;;;;2.55;1.45;;;;;;;;;;5049666;28;20037;-70
2022/03/31 04:34:10;;;;;;;2.20;1.25;;;;;;;;;;5046783;28;20056;-70
2022/03/31 04:36:37;;;;;;;2.35;1.33;;;;;;;;;;5050161;28;20562;-69
2022/03/31 04:39:05;;;;;;;5.35;1.50;;;;;;;;;;5053600;28;20491;-70
2022/03/31 04:41:32;;;;;;;3.53;1.23;;;;;;;;;;5049349;28;20045;-70
2022/03/31 04:43:59;;;;;;;2.55;1.40;;;;;;;;;;5049993;28;20130;-70
2022/03/31 04:46:27;;;;;;;3.35;1.50;;;;;;;;;;5045372;28;20057;-69
2022/03/31 04:48:55;;;;;;;5.63;1.40;;;;;;;;;;5040877;28;20052;-69
2022/03/31 04:51:22;;;;;;;3.88;1.90;;;;;;;;;;5045910;28;20049;-69
2022/03/31 04:53:50;;;;;;;4.35;1.55;;;;;;;;;;5054173;28;20066;-69
2022/03/31 04:56:17;;;;;;;4.20;1.80;;;;;;;;;;5042761;28;20114;-69
2022/03/31 04:58:44;;;;;;;3.97;1.63;;;;;;;;;;5060335;28;20089;-69
2022/03/31 05:01:12;;;;;;;4.72;1.70;;;;;;;;;;5037830;28;20045;-69
2022/03/31 05:03:39;;;;;;;4.57;1.50;;;;;;;;;;5043413;28;20052;-69
2022/03/31 05:06:08;;;;;;;2.95;1.50;;;;;;;;;;5035261;28;20133;-70
2022/03/31 05:08:35;;;;;;;3.47;1.33;;;;;;;;;;5040402;28;20068;-70
2022/03/31 05:11:02;;;;;;;4.32;1.33;;;;;;;;;;5040333;28;20515;-70
2022/03/31 05:13:30;;;;;;;4.65;1.77;;;;;;;;;;5044441;28;20060;-70
2022/03/31 05:15:57;;;;;;;3.80;1.48;;;;;;;;;;5042120;28;20404;-70
2022/03/31 05:18:24;;;;;;;4.90;1.60;;;;;;;;;;5041349;28;20841;-70
2022/03/31 05:20:51;;;;;;;3.20;1.65;;;;;;;;;;5041930;28;20053;-70
2022/03/31 05:23:20;;;;;;;2.28;1.60;;;;;;;;;;5030204;28;20056;-70
2022/03/31 05:25:48;;;;;;;4.07;2.10;;;;;;;;;;5036157;28;20056;-70
2022/03/31 05:28:16;;;;;;;3.88;1.85;;;;;;;;;;5036677;28;20053;-70
2022/03/31 05:30:44;;;;;;;5.40;2.00;;;;;;;;;;5032953;28;20118;-70
2022/03/31 05:33:11;;;;;;;3.60;1.92;;;;;;;;;;5037463;28;20045;-70
2022/03/31 05:35:39;;;;;;;5.80;2.13;;;;;;;;;;5041958;28;20044;-70
2022/03/31 05:38:07;;;;;;;3.60;1.95;;;;;;;;;;5041470;28;20065;-69
2022/03/31 05:40:36;;;;;;;3.20;1.98;;;;;;;;;;5045234;28;20393;-70
2022/03/31 05:43:03;;;;;;;5.80;2.70;;;;;;;;;;5043132;28;20110;-70
2022/03/31 05:45:31;;;;;;;5.80;2.55;;;;;;;;;;5040219;28;20061;-70
2022/03/31 05:47:58;;;;;;;3.92;2.25;;;;;;;;;;5038457;28;20048;-70
2022/03/31 05:50:25;;;;;;;4.68;2.40;;;;;;;;;;5039684;28;21114;-70
2022/03/31 05:52:53;;;;;;;4.70;2.30;;;;;;;;;;5038819;28;20143;-70
2022/03/31 05:55:21;;;;;;;3.80;2.42;;;;;;;;;;5036651;28;20507;-70
2022/03/31 05:57:50;;;;;;;7.75;2.88;;;;;;;;;;5039018;28;20075;-70
2022/03/31 06:00:19;;;;;;;5.32;2.45;;;;;;;;;;5037615;28;20053;-69
2022/03/31 06:02:46;;;;;;;8.15;3.28;;;;;;;;;;5032323;28;20135;-70
2022/03/31 06:05:14;;;;;;;8.00;2.90;;;;;;;;;;5036746;28;20063;-70
2022/03/31 06:07:41;;;;;;;9.02;3.40;;;;;;;;;;5033977;28;20087;-70
2022/03/31 06:10:08;;;;;;;7.35;3.15;;;;;;;;;;5041787;28;20507;-70
2022/03/31 06:12:36;;;;;;;6.13;3.28;;;;;;;;;;5043166;28;20053;-69
2022/03/31 06:15:05;;;;;;;6.28;3.42;;;;;;;;;;5046904;28;20060;-70
2022/03/31 06:17:32;;;;;;;6.85;3.00;;;;;;;;;;5045806;28;20049;-70
2022/03/31 06:19:59;;;;;;;5.97;3.42;;;;;;;;;;5037501;28;20064;-70
2022/03/31 06:22:27;;;;;;;5.22;2.85;;;;;;;;;;5048046;28;20422;-70
2022/03/31 06:24:54;;;;;;;4.53;2.90;;;;;;;;;;5042056;28;20049;-70
2022/03/31 06:27:21;;;;;;;4.55;2.25;;;;;;;;;;5040327;28;20060;-70
2022/03/31 06:29:49;;;;;;;3.55;1.95;;;;;;;;;;5041546;28;20065;-70
2022/03/31 06:32:18;;;;;;;3.15;2.17;;;;;;;;;;5043699;28;20045;-70
2022/03/31 06:34:45;;;;;;;2.67;1.98;;;;;;;;;;5035140;28;20048;-70
2022/03/31 06:37:13;;;;;;;5.60;2.05;;;;;;;;;;5034833;28;20541;-70
2022/03/31 06:39:41;;;;;;;4.50;2.33;;;;;;;;;;5032091;28;20080;-70
2022/03/31 06:42:08;;;;;;;3.72;2.10;;;;;;;;;;5037623;28;20091;-69
2022/03/31 06:44:35;;;;;;;3.38;1.95;;;;;;;;;;5033056;28;20045;-69
2022/03/31 06:47:03;;;;;;;5.55;2.10;;;;;;;;;;5040715;28;20503;-71
2022/03/31 06:49:32;;;;;;;2.70;2.13;;;;;;;;;;5036104;28;20052;-69
2022/03/31 06:51:59;;;;;;;2.15;1.88;;;;;;;;;;5036804;28;20078;-70
2022/03/31 06:54:27;;;;;;;2.72;1.70;;;;;;;;;;5039293;28;20061;-70
2022/03/31 06:56:55;;;;;;;3.78;2.33;;;;;;;;;;5044547;28;20049;-70
2022/03/31 06:59:22;;;;;;;4.05;2.00;;;;;;;;;;5039720;28;20076;-70
2022/03/31 07:01:49;;;;;;;2.75;2.00;;;;;;;;;;5047569;28;20061;-71
2022/03/31 07:04:16;;;;;;;3.33;2.20;;;;;;;;;;5036492;28;20049;-70
2022/03/31 07:06:45;;;;;;;4.03;2.75;;;;;;;;;;5041225;28;20059;-70
2022/03/31 07:09:12;;;;;;;4.30;2.92;;;;;;;;;;5036725;28;20056;-70
2022/03/31 07:11:39;;;;;;;2.72;2.47;;;;;;;;;;5040018;28;20117;-70
2022/03/31 07:14:07;;;;;;;3.88;2.88;;;;;;;;;;5048534;28;20052;-70
2022/03/31 07:16:34;;;;;;;2.90;2.58;;;;;;;;;;5040511;28;20106;-70
2022/03/31 07:19:03;;;;;;;3.22;2.90;;;;;;;;;;5044191;28;20064;-70
2022/03/31 07:21:30;;;;;;;3.75;2.55;;;;;;;;;;5042174;28;20070;-70
2022/03/31 07:24:00;;;;;;;3.08;2.72;;;;;;;;;;5038175;28;20053;-70
2022/03/31 07:26:28;;;;;;;3.97;2.90;;;;;;;;;;5036900;28;20516;-70
2022/03/31 07:28:55;;;;;;;3.70;3.20;;;;;;;;;;5042770;28;20067;-70
2022/03/31 07:31:24;;;;;;;3.75;3.00;;;;;;;;;;5060719;28;20121;-70
2022/03/31 07:33:51;;;;;;;4.05;3.22;;;;;;;;;;5039349;28;20081;-70
2022/03/31 07:36:18;;;;;;;4.22;3.38;;;;;;;;;;5043275;28;20053;-70
2022/03/31 07:38:46;;;;;;;3.47;3.17;;;;;;;;;;5039208;28;20131;-70
2022/03/31 07:41:15;;;;;;;4.07;3.33;;;;;;;;;;5042111;28;20127;-70
2022/03/31 07:43:43;;;;;;;3.70;3.38;;;;;;;;;;5034972;28;20807;-70
2022/03/31 07:46:10;;;;;;;5.80;3.88;;;;;;;;;;5036990;28;20056;-70
2022/03/31 07:48:37;;;;;;;4.40;3.20;;;;;;;;;;5039866;28;20114;-70
2022/03/31 07:51:05;;;;;;;4.53;3.42;;;;;;;;;;5041841;28;20466;-71
2022/03/31 07:53:33;;;;;;;4.93;3.60;;;;;;;;;;5038172;28;20073;-70
2022/03/31 07:56:00;;;;;;;4.00;3.60;;;;;;;;;;5035713;28;20057;-70
2022/03/31 07:58:29;;;;;;;3.63;3.20;;;;;;;;;;5043963;28;20102;-70
2022/03/31 08:00:56;;;;;;;3.50;3.17;;;;;;;;;;5041044;28;20148;-70
2022/03/31 08:03:23;;;;;;;3.60;2.65;;;;;;;;;;5034629;28;20044;-70
2022/03/31 08:05:51;;;;;;;3.50;3.20;;;;;;;;;;5037810;28;20063;-71
2022/03/31 08:08:19;;;;;;;3.45;2.75;;;;;;;;;;5043261;28;20071;-70
2022/03/31 08:10:46;;;;;;;3.63;2.55;;;;;;;;;;5042345;28;20510;-70
2022/03/31 08:13:13;;;;;;;3.75;3.35;;;;;;;;;;5039822;28;20102;-70
2022/03/31 08:15:42;;;;;;;6.25;4.93;;;;;;;;;;5044997;28;20060;-70
2022/03/31 08:18:10;;;;;;;5.28;4.60;;;;;;;;;;5045630;28;20056;-70
2022/03/31 08:20:37;;;;;;;4.18;3.67;;;;;;;;;;5049013;28;20056;-70
2022/03/31 08:23:04;;;;;;;3.95;3.55;;;;;;;;;;5045931;28;20110;-70
2022/03/31 08:25:32;;;;;;;4.72;4.25;;;;;;;;;;5045561;28;20072;-70
2022/03/31 08:27:59;;;;;;;4.97;4.10;;;;;;;;;;5047384;28;20466;-70
2022/03/31 08:30:28;;;;;;;5.90;4.57;;;;;;;;;;5044851;28;20167;-70
2022/03/31 08:32:56;;;;;;;5.80;5.00;;;;;;;;;;5046958;28;20131;-70
2022/03/31 08:35:27;;;;;;;6.30;4.93;;;;;;;;;;5043756;28;20052;-70
2022/03/31 08:37:54;;;;;;;5.97;5.38;;;;;;;;;;5047751;28;20052;-71
2022/03/31 08:40:21;;;;;;;7.72;6.40;;;;;;;;;;5047864;28;20780;-70
2022/03/31 08:42:48;;;;;;;6.70;6.00;;;;;;;;;;5046041;28;20348;-70
2022/03/31 08:45:17;;;;;;;6.47;5.80;;;;;;;;;;5037930;28;20041;-70
2022/03/31 08:47:45;;;;;;;6.70;6.00;;;;;;;;;;5046914;28;20056;-70
2022/03/31 08:50:14;;;;;;;6.40;5.72;;;;;;;;;;5048983;28;20472;-70
2022/03/31 08:52:42;;;;;;;6.82;5.80;;;;;;;;;;5046703;28;20053;-70
2022/03/31 08:55:12;;;;;;;5.20;4.70;;;;;;;;;;5042012;28;20053;-70
2022/03/31 08:57:43;;;;;;;6.15;4.60;;;;;;;;;;5046145;28;20059;-70
2022/03/31 09:00:12;;;;;;;3.03;2.72;;;;;;;;;;5049244;28;20082;-70
2022/03/31 09:02:40;;;;;;;3.30;2.85;;;;;;;;;;5047341;28;20052;-70
2022/03/31 09:05:09;;;;;;;3.15;2.85;;;;;;;;;;5051651;28;20068;-70
2022/03/31 09:07:38;;;;;;;3.15;2.70;;;;;;;;;;5051339;28;20078;-70
2022/03/31 09:10:05;;;;;;;2.80;2.30;;;;;;;;;;5046990;28;20514;-70
2022/03/31 09:12:39;;;;;;;2.95;2.50;;;;;;;;;;5048325;28;20498;-70
2022/03/31 09:15:06;;;;;;;;;;;;;;;;;;5051274;28;20808;-70
2022/03/31 09:17:36;;;;;;;3.38;2.75;;;;;;;;;;5049579;28;19925;-70
2022/03/31 09:20:04;;;;;;;4.03;3.08;;;;;;;;;;5051934;28;20056;-70
2022/03/31 09:22:31;;;;;;;3.67;3.08;;;;;;;;;;5049883;28;20383;-70
2022/03/31 09:25:03;;;;;;;4.18;3.72;;;;;;;;;;5049115;28;20048;-70
2022/03/31 09:27:30;;;;;;;4.18;3.78;;;;;;;;;;5047606;28;20064;-70
2022/03/31 09:30:05;;;;;;;4.90;3.65;;;;;;;;;;5072656;28;20055;-70
2022/03/31 09:32:32;;;;;;;4.80;3.22;;;;;;;;;;5043640;28;20102;-70
2022/03/31 09:35:06;;;;;;;3.95;3.10;;;;;;;;;;5043857;28;20052;-70
2022/03/31 09:37:33;;;;;;;5.10;3.13;;;;;;;;;;5049308;28;20082;-70
2022/03/31 09:40:00;;;;;;;3.00;2.70;;;;;;;;;;5049725;28;20122;-70
2022/03/31 09:42:29;;;;;;;3.53;3.05;;;;;;;;;;5050801;28;20780;-70
2022/03/31 09:44:59;;;;;;;3.58;3.03;;;;;;;;;;5047952;28;20491;-70
2022/03/31 09:47:28;;;;;;;4.32;3.10;;;;;;;;;;5049480;28;20118;-71
2022/03/31 09:49:55;;;;;;;3.60;2.90;;;;;;;;;;5051007;28;20084;-70
2022/03/31 09:52:23;;;;;;;4.95;3.25;;;;;;;;;;5045329;28;20170;-70
2022/03/31 09:54:51;;;;;;;4.28;3.38;;;;;;;;;;5048029;28;20044;-70
2022/03/31 09:57:22;;;;;;;3.72;2.95;;;;;;;;;;5046387;28;20145;-70
2022/03/31 09:59:52;;;;;;;3.80;2.80;;;;;;;;;;5048766;28;20505;-70
2022/03/31 10:02:20;;;;;;;2.67;2.20;;;;;;;;;;5047007;28;20094;-70
2022/03/31 10:04:48;;;;;;;4.50;2.60;;;;;;;;;;5044458;28;20049;-70
2022/03/31 10:07:15;;;;;;;3.50;2.35;;;;;;;;;;5045717;28;20056;-70
2022/03/31 10:09:44;;;;;;;3.55;2.50;;;;;;;;;;5048204;28;20053;-70
2022/03/31 10:12:16;;;;;;;3.58;2.40;;;;;;;;;;5067729;28;20053;-70
2022/03/31 10:14:46;;;;;;;5.35;2.90;;;;;;;;;;5048618;28;20062;-70
2022/03/31 10:17:15;;;;;;;3.03;2.63;;;;;;;;;;5051356;28;20106;-70
2022/03/31 10:19:44;;;;;;;4.43;2.90;;;;;;;;;;5049546;28;20133;-70
2022/03/31 10:24:41;;;;;;;3.42;2.70;;;;;;;;;;5049544;28;20052;-70
2022/03/31 10:25:00;;;;;;;5.45;2.83;;;;;;;;;;5049240;28;20059;-70
2022/03/31 10:27:28;;;;;;;3.92;2.80;;;;;;;;;;5048561;28;20493;-70
2022/03/31 10:29:56;;;;;;;3.90;2.72;;;;;;;;;;5048520;28;20055;-70
2022/03/31 10:32:25;;;;;;;3.35;2.80;;;;;;;;;;5051747;28;20052;-71
2022/03/31 10:34:54;;;;;;;3.08;2.75;;;;;;;;;;5047210;28;20474;-71
2022/03/31 10:37:32;;;;;;;4.10;3.15;;;;;;;;;;5042107;28;20056;-70
2022/03/31 10:40:00;;;;;;;3.28;2.83;;;;;;;;;;5043724;28;20443;-70
2022/03/31 10:42:27;;;;;;;3.65;2.88;;;;;;;;;;5039843;28;20421;-70
2022/03/31 10:45:08;;;;;;;3.67;2.85;;;;;;;;;;5047492;28;20174;-71
2022/03/31 10:47:37;;;;;;;3.08;2.30;;;;;;;;;;5041804;28;20074;-70
2022/03/31 10:50:07;;;;;;;2.83;2.53;;;;;;;;;;5046007;28;20491;-70
2022/03/31 10:52:34;;;;;;;5.00;3.08;;;;;;;;;;5047737;28;20052;-70
2022/03/31 10:55:09;;;;;;;4.00;2.70;;;;;;;;;;5049057;28;20055;-70
2022/03/31 10:57:43;;;;;;;3.85;2.85;;;;;;;;;;5064160;28;20550;-70
2022/03/31 11:00:11;;;;;;;4.38;2.60;;;;;;;;;;5051145;28;20052;-71
2022/03/31 11:02:44;;;;;;;4.78;2.90;;;;;;;;;;5049937;28;20110;-70
2022/03/31 11:05:12;;;;;;;3.67;2.45;;;;;;;;;;5049265;28;20052;-70
2022/03/31 11:07:39;;;;;;;4.25;3.20;;;;;;;;;;5044394;28;20061;-71
2022/03/31 11:10:08;;;;;;;5.10;3.10;;;;;;;;;;5041471;28;20076;-70
2022/03/31 11:12:36;;;;;;;4.40;3.00;;;;;;;;;;5044547;28;20059;-70
2022/03/31 11:15:05;;;;;;;3.92;3.00;;;;;;;;;;5046499;28;20101;-70
2022/03/31 11:17:33;;;;;;;5.57;3.10;;;;;;;;;;5044369;28;20062;-71
2022/03/31 11:20:06;;;;;;;9.02;4.68;;;;;;;;;;5047298;28;20067;-70
2022/03/31 11:22:34;;;;;;;19.90;14.43;;;;;;;;;;5068777;28;20053;-71
2022/03/31 11:25:11;;;;;;;7.95;6.25;;;;;;;;;;5048964;28;20048;-71
2022/03/31 11:27:39;;;;;;;9.88;8.88;;;;;;;;;;5049564;28;20060;-71
2022/03/31 11:30:08;;;;;;;6.32;5.35;;;;;;;;;;5048957;28;20437;-70
2022/03/31 11:32:36;;;;;;;6.13;5.05;;;;;;;;;;5041749;28;20049;-70
2022/03/31 11:35:05;;;;;;;7.07;6.38;;;;;;;;;;5044726;28;20045;-72
2022/03/31 11:37:32;;;;;;;7.57;5.85;;;;;;;;;;5044200;28;20078;-71
2022/03/31 11:39:59;;;;;;;5.85;4.07;;;;;;;;;;5047463;28;20048;-71
2022/03/31 11:42:28;;;;;;;5.28;4.63;;;;;;;;;;5047272;28;20163;-71
2022/03/31 11:44:55;;;;;;;6.35;5.70;;;;;;;;;;5047260;28;20418;-71
2022/03/31 11:47:24;;;;;;;6.18;4.43;;;;;;;;;;5056700;28;20050;-71
2022/03/31 11:50:01;;;;;;;6.00;4.88;;;;;;;;;;5043912;28;20399;-71
2022/03/31 11:52:31;;;;;;;6.03;4.00;;;;;;;;;;5046991;28;20060;-71
2022/03/31 11:55:00;;;;;;;6.07;4.28;;;;;;;;;;5045658;28;20103;-71
2022/03/31 11:57:28;;;;;;;4.88;3.80;;;;;;;;;;5043879;28;20076;-71
2022/03/31 11:59:56;;;;;;;4.25;3.78;;;;;;;;;;5042189;28;20132;-71
2022/03/31 12:02:23;;;;;;;5.97;3.50;;;;;;;;;;5049008;28;20060;-71
2022/03/31 12:04:50;;;;;;;7.20;4.10;;;;;;;;;;5046877;28;20052;-71
2022/03/31 12:07:19;;;;;;;5.95;4.75;;;;;;;;;;5047898;28;20048;-71
2022/03/31 12:09:48;;;;;;;6.90;4.40;;;;;;;;;;5039904;28;20076;-71
2022/03/31 12:12:16;;;;;;;5.13;4.00;;;;;;;;;;5039993;28;20053;-70
2022/03/31 12:14:53;;;;;;;7.90;6.22;;;;;;;;;;5039617;28;20055;-71
2022/03/31 12:17:20;;;;;;;5.28;4.55;;;;;;;;;;5044834;28;20090;-70
2022/03/31 12:19:48;;;;;;;5.50;4.57;;;;;;;;;;5038281;28;20056;-71
2022/03/31 12:22:15;;;;;;;7.15;5.68;;;;;;;;;;5035875;28;20581;-70
2022/03/31 12:24:48;;;;;;;5.50;4.43;;;;;;;;;;5049694;28;20091;-71
2022/03/31 12:27:17;;;;;;;5.63;3.88;;;;;;;;;;5045347;28;20512;-70
2022/03/31 12:29:45;;;;;;;5.47;3.85;;;;;;;;;;5047665;28;20151;-71
2022/03/31 12:32:13;;;;;;;7.15;5.10;;;;;;;;;;5043174;28;20061;-70
2022/03/31 12:34:41;;;;;;;5.45;4.25;;;;;;;;;;5054576;28;20037;-71
2022/03/31 12:37:08;;;;;;;4.22;3.58;;;;;;;;;;5043984;28;20110;-71
2022/03/31 12:39:41;;;;;;;4.65;3.40;;;;;;;;;;5036778;28;20053;-70
2022/03/31 12:42:10;;;;;;;4.40;3.10;;;;;;;;;;5047311;28;20052;-70
2022/03/31 12:44:40;;;;;;;4.95;3.90;;;;;;;;;;5040853;28;20087;-71
2022/03/31 12:47:07;;;;;;;5.45;3.95;;;;;;;;;;5043856;28;20049;-70
2022/03/31 12:49:35;;;;;;;4.78;3.78;;;;;;;;;;5039548;28;20107;-70
2022/03/31 12:52:04;;;;;;;6.50;4.55;;;;;;;;;;5044739;28;20056;-70
2022/03/31 12:54:33;;;;;;;6.55;4.18;;;;;;;;;;5039520;28;20055;-70
2022/03/31 12:57:01;;;;;;;4.45;3.47;;;;;;;;;;5041998;28;20123;-70
2022/03/31 12:59:31;;;;;;;7.00;6.30;;;;;;;;;;5044910;28;20056;-70
2022/03/31 13:02:03;;;;;;;6.15;4.90;;;;;;;;;;5038570;28;20052;-70
2022/03/31 13:04:31;;;;;;;5.47;4.85;;;;;;;;;;5041469;28;20075;-70
2022/03/31 13:06:58;;;;;;;6.30;5.50;;;;;;;;;;5040986;28;20741;-71
2022/03/31 13:09:26;;;;;;;6.15;4.40;;;;;;;;;;5044455;28;20555;-70
2022/03/31 13:11:56;;;;;;;6.88;5.00;;;;;;;;;;5044840;28;20797;-70
2022/03/31 13:14:23;;;;;;;6.82;4.30;;;;;;;;;;5044483;28;20055;-70
2022/03/31 13:16:52;;;;;;;5.22;3.85;;;;;;;;;;5043115;28;20045;-69
2022/03/31 13:19:19;;;;;;;6.30;4.05;;;;;;;;;;5045806;28;20105;-69
2022/03/31 13:21:46;;;;;;;4.80;3.25;;;;;;;;;;5048328;28;20052;-69
2022/03/31 13:24:14;;;;;;;38.40;8.10;;;;;;;;;;5046247;28;20048;-69
2022/03/31 13:26:41;;;;;;;4.90;4.03;;;;;;;;;;5047888;28;20044;-69
2022/03/31 13:29:10;;;;;;;5.40;4.40;;;;;;;;;;5049472;28;20105;-70
2022/03/31 13:31:40;;;;;;;5.63;4.15;;;;;;;;;;5049270;28;20048;-69
2022/03/31 13:34:09;;;;;;;4.78;4.28;;;;;;;;;;5047512;28;20047;-70
2022/03/31 13:36:37;;;;;;;4.35;3.33;;;;;;;;;;5049332;28;20056;-70
2022/03/31 13:39:05;;;;;;;5.28;3.55;;;;;;;;;;5052153;28;20056;-70
2022/03/31 13:41:32;;;;;;;5.25;4.65;;;;;;;;;;5050982;28;20164;-70
2022/03/31 13:43:59;;;;;;;5.50;3.70;;;;;;;;;;5051982;28;20457;-70
2022/03/31 13:46:26;;;;;;;63.95;8.38;;;;;;;;;;5049369;28;20061;-70
2022/03/31 13:48:54;;;;;;;13.35;3.35;;;;;;;;;;5053502;28;20068;-70
2022/03/31 13:51:22;;;;;;;21.17;4.65;;;;;;;;;;5050641;28;20057;-70
2022/03/31 13:53:53;;;;;;;26.60;4.18;;;;;;;;;;5048133;28;20044;-69
2022/03/31 13:56:21;;;;;;;10.73;4.20;;;;;;;;;;5048861;28;20060;-69
2022/03/31 14:01:35;;;;;;;4.57;3.30;;;;;;;;;;5051203;28;20109;-69
2022/03/31 14:04:03;;;;;;;7.53;3.55;;;;;;;;;;5049708;28;20534;-69
2022/03/31 14:06:32;;;;;;;4.68;3.20;;;;;;;;;;5051256;28;20055;-69
2022/03/31 14:09:02;;;;;;;6.45;3.60;;;;;;;;;;5049315;28;20057;-69
2022/03/31 14:11:32;;;;;;;95.80;11.32;;;;;;;;;;5050619;28;20044;-69
2022/03/31 14:14:00;;;;;;;18.80;4.22;;;;;;;;;;5047129;28;20049;-69
2022/03/31 14:16:28;;;;;;;14.40;4.10;;;;;;;;;;5047008;28;20151;-69
2022/03/31 14:18:56;;;;;;;99.47;8.88;;;;;;;;;;5036713;28;20057;-69
2022/03/31 14:21:23;;;;;;;45.47;7.47;;;;;;;;;;5042062;28;20056;-69
2022/03/31 14:23:54;;;;;;;18.35;5.75;;;;;;;;;;5039326;28;20052;-69
2022/03/31 14:26:22;;;;;;;18.75;14.35;;;;;;;;;;5043849;28;20057;-69
2022/03/31 14:28:50;;;;;;;6.07;5.47;;;;;;;;;;5041355;28;20051;-69
2022/03/31 14:31:18;;;;;;;6.97;5.95;;;;;;;;;;5040044;28;20057;-69
2022/03/31 14:33:48;;;;;;;7.35;4.60;;;;;;;;;;5039075;28;20060;-69
2022/03/31 14:36:15;;;;;;;249.35;18.52;;;;;;;;;;5044815;28;20053;-69
2022/03/31 14:38:43;;;;;;;10.73;8.75;;;;;;;;;;5034600;28;20045;-68
2022/03/31 14:41:13;;;;;;;6.22;4.35;;;;;;;;;;5046143;28;20405;-69
2022/03/31 14:43:41;;;;;;;7.47;3.67;;;;;;;;;;5039294;28;20049;-69
2022/03/31 14:46:08;;;;;;;6.75;4.10;;;;;;;;;;5037696;28;20045;-68
2022/03/31 14:48:36;;;;;;;128.23;14.75;;;;;;;;;;5039904;28;20522;-68
2022/03/31 14:51:04;;;;;;;14.80;12.45;;;;;;;;;;5041610;28;20052;-68
2022/03/31 14:53:32;;;;;;;63.47;49.28;;;;;;;;;;5041287;28;20558;-69